Time;durP1;ratioP1;P1;durP2;ratioP2;P2;SDS_P1;SDS_P2;PMS_P1;PMS_P2;Temp;Humidity;BMP_temperature;BMP_pressure;BME280_temperature;BME280_humidity;BME280_pressure;Samples;Min_cycle;Max_cycle;Signal;HPM_P1;HPM_P2
2022/08/25 00:01:32;;;;;;;24.05;22.45;;;21.30;99.90;;;;;;6010834;23;20095;-75
2022/08/25 00:04:01;;;;;;;23.83;22.13;;;21.30;99.90;;;;;;6038454;23;20033;-74
2022/08/25 00:06:29;;;;;;;23.60;21.90;;;21.30;99.90;;;;;;6032494;23;20036;-74
2022/08/25 00:08:58;;;;;;;23.77;21.98;;;21.30;99.90;;;;;;5992801;23;20393;-74
2022/08/25 00:11:29;;;;;;;23.92;22.20;;;21.30;99.90;;;;;;6011959;23;20119;-73
2022/08/25 00:14:02;;;;;;;25.15;22.80;;;21.30;99.90;;;;;;6037900;23;20094;-75
2022/08/25 00:16:32;;;;;;;23.90;22.25;;;21.20;99.90;;;;;;6033064;23;20519;-74
2022/08/25 00:19:04;;;;;;;24.75;22.65;;;21.30;99.90;;;;;;6017461;23;20032;-75
2022/08/25 00:21:31;;;;;;;25.17;23.48;;;21.30;99.90;;;;;;6040963;23;20096;-75
2022/08/25 00:24:01;;;;;;;25.05;23.13;;;21.20;99.90;;;;;;6041160;23;20032;-73
2022/08/25 00:26:28;;;;;;;24.77;23.00;;;21.20;99.90;;;;;;6046517;23;20444;-74
2022/08/25 00:28:55;;;;;;;24.48;22.77;;;21.20;99.90;;;;;;6017606;23;20040;-74
2022/08/25 00:31:28;;;;;;;24.92;23.00;;;21.20;99.90;;;;;;6041509;23;20033;-74
2022/08/25 00:34:08;;;;;;;24.40;22.67;;;21.10;99.90;;;;;;6041837;23;20029;-73
2022/08/25 00:36:35;;;;;;;24.95;23.10;;;21.10;99.90;;;;;;6017718;23;20366;-72
2022/08/25 00:39:04;;;;;;;23.85;22.25;;;21.00;99.90;;;;;;6018570;23;20391;-74
2022/08/25 00:41:31;;;;;;;24.60;22.75;;;20.90;99.90;;;;;;6042421;23;20041;-73
2022/08/25 00:44:00;;;;;;;24.90;23.13;;;21.00;99.90;;;;;;6043141;23;20467;-73
2022/08/25 00:46:35;;;;;;;24.67;22.88;;;20.90;99.90;;;;;;6042665;23;20097;-72
2022/08/25 00:49:06;;;;;;;23.90;22.30;;;20.90;99.90;;;;;;6044718;23;20028;-73
2022/08/25 00:52:03;;;;;;;25.20;23.40;;;20.90;99.90;;;;;;6015209;23;20068;-75
2022/08/25 00:54:38;;;;;;;24.88;23.05;;;20.90;99.90;;;;;;6040824;23;20033;-75
2022/08/25 00:57:08;;;;;;;25.88;23.88;;;20.80;99.90;;;;;;6014948;23;20649;-73
2022/08/25 00:59:35;;;;;;;25.83;23.65;;;20.80;99.90;;;;;;6017175;23;20032;-74
2022/08/25 01:02:04;;;;;;;25.13;23.33;;;20.70;99.90;;;;;;6042311;23;20037;-73
2022/08/25 01:04:33;;;;;;;25.77;23.55;;;20.80;99.90;;;;;;6042033;23;20064;-73
2022/08/25 01:07:01;;;;;;;26.45;24.45;;;20.80;99.90;;;;;;6043606;23;20036;-73
2022/08/25 01:09:31;;;;;;;24.90;23.20;;;20.70;99.90;;;;;;6017731;23;20029;-74
2022/08/25 01:11:59;;;;;;;25.30;23.60;;;20.70;99.90;;;;;;6018086;23;20064;-74
2022/08/25 01:14:27;;;;;;;25.02;23.23;;;20.60;99.90;;;;;;6016296;23;20029;-73
2022/08/25 01:16:54;;;;;;;25.95;23.63;;;20.60;99.90;;;;;;6043930;23;20162;-73
2022/08/25 01:19:21;;;;;;;25.60;23.60;;;20.60;99.90;;;;;;6041225;23;20032;-73
2022/08/25 01:21:50;;;;;;;26.30;24.27;;;20.60;99.90;;;;;;6044408;23;20036;-76
2022/08/25 01:24:27;;;;;;;25.48;23.58;;;20.50;99.90;;;;;;6015831;23;20486;-75
2022/08/25 01:26:54;;;;;;;26.40;24.17;;;20.50;99.90;;;;;;6013063;23;20132;-76
2022/08/25 01:29:21;;;;;;;26.30;24.05;;;20.50;99.90;;;;;;6016859;23;20029;-75
2022/08/25 01:32:00;;;;;;;26.52;24.60;;;20.50;99.90;;;;;;6017831;23;20072;-76
2022/08/25 01:34:30;;;;;;;26.25;24.17;;;20.40;99.90;;;;;;6039261;23;20506;-76
2022/08/25 01:36:58;;;;;;;25.58;23.88;;;20.40;99.90;;;;;;6018901;23;20463;-76
2022/08/25 01:39:26;;;;;;;25.73;23.83;;;20.40;99.90;;;;;;6015991;23;20107;-76
2022/08/25 01:42:05;;;;;;;25.73;24.02;;;20.30;99.90;;;;;;6020239;23;20075;-75
2022/08/25 01:44:35;;;;;;;25.17;23.58;;;20.30;99.90;;;;;;6024233;23;20033;-75
2022/08/25 01:47:03;;;;;;;25.85;23.90;;;20.30;99.90;;;;;;6041204;23;20036;-76
2022/08/25 01:49:31;;;;;;;25.98;24.10;;;20.30;99.90;;;;;;6017434;23;20079;-75
2022/08/25 01:52:10;;;;;;;25.90;24.10;;;20.20;99.90;;;;;;6030639;23;20765;-75
2022/08/25 01:54:37;;;;;;;25.52;23.65;;;20.10;99.90;;;;;;6039307;23;20068;-75
2022/08/25 01:57:03;;;;;;;26.58;24.55;;;20.10;99.90;;;;;;6016868;23;20041;-74
2022/08/25 01:59:30;;;;;;;26.10;24.10;;;20.10;99.90;;;;;;6040622;23;20088;-76
2022/08/25 02:01:57;;;;;;;27.13;24.80;;;20.10;99.90;;;;;;6008648;23;20036;-75
2022/08/25 02:04:31;;;;;;;26.10;24.02;;;20.10;99.90;;;;;;6013990;23;20341;-75
2022/08/25 02:07:00;;;;;;;27.10;25.08;;;20.00;99.90;;;;;;5973079;23;20037;-75
2022/08/25 02:09:27;;;;;;;25.83;24.00;;;20.00;99.90;;;;;;6034721;23;20119;-75
2022/08/25 02:11:55;;;;;;;26.67;24.65;;;19.90;99.90;;;;;;6064930;23;20043;-76
2022/08/25 02:14:23;;;;;;;25.80;23.92;;;20.00;99.90;;;;;;6061921;23;20037;-77
2022/08/25 02:16:52;;;;;;;26.48;24.40;;;19.90;99.90;;;;;;6016503;23;20048;-75
2022/08/25 02:19:20;;;;;;;26.42;24.17;;;19.90;99.90;;;;;;6005805;23;20061;-76
2022/08/25 02:21:47;;;;;;;26.75;24.42;;;19.90;99.90;;;;;;6046806;23;20553;-76
2022/08/25 02:24:14;;;;;;;26.67;24.42;;;19.70;99.90;;;;;;5981963;23;20068;-75
2022/08/25 02:26:42;;;;;;;26.17;24.27;;;19.80;99.90;;;;;;6050320;23;20095;-75
2022/08/25 02:29:10;;;;;;;26.35;24.17;;;19.70;99.90;;;;;;6036971;23;20056;-74
2022/08/25 02:31:38;;;;;;;27.63;24.73;;;19.70;99.90;;;;;;6005074;23;20338;-74
2022/08/25 02:34:08;;;;;;;25.25;23.55;;;19.70;99.90;;;;;;6042731;23;20102;-73
2022/08/25 02:36:37;;;;;;;25.60;23.75;;;19.70;99.90;;;;;;6023675;23;20087;-74
2022/08/25 02:39:06;;;;;;;27.10;24.73;;;19.60;99.90;;;;;;6018151;23;20703;-72
2022/08/25 02:41:33;;;;;;;25.60;23.90;;;19.60;99.90;;;;;;6039778;23;20628;-74
2022/08/25 02:44:03;;;;;;;25.75;23.77;;;19.50;99.90;;;;;;6041910;23;20371;-75
2022/08/25 02:46:30;;;;;;;26.58;24.55;;;19.50;99.90;;;;;;6021420;23;20204;-75
2022/08/25 02:48:58;;;;;;;26.95;24.85;;;19.40;99.90;;;;;;6015868;23;20491;-74
2022/08/25 02:51:27;;;;;;;26.48;24.67;;;19.40;99.90;;;;;;6013565;23;20549;-75
2022/08/25 02:53:56;;;;;;;26.42;24.40;;;19.20;99.90;;;;;;6017566;23;20096;-74
2022/08/25 02:56:24;;;;;;;27.63;25.40;;;19.10;99.90;;;;;;5987246;23;21486;-74
2022/08/25 02:58:51;;;;;;;26.90;24.80;;;18.90;99.90;;;;;;6013456;23;20037;-74
2022/08/25 03:01:18;;;;;;;26.98;24.75;;;18.70;99.90;;;;;;5984434;23;20107;-73
2022/08/25 03:03:49;;;;;;;27.52;25.25;;;18.70;99.90;;;;;;6007048;23;20458;-74
2022/08/25 03:06:19;;;;;;;27.48;25.00;;;18.50;99.90;;;;;;6022689;23;20306;-75
2022/08/25 03:08:46;;;;;;;27.00;24.90;;;18.30;99.90;;;;;;6063341;23;20033;-75
2022/08/25 03:11:13;;;;;;;26.70;24.88;;;18.20;99.90;;;;;;6058485;23;20447;-72
2022/08/25 03:13:40;;;;;;;26.63;24.83;;;18.00;99.90;;;;;;6008607;23;20610;-72
2022/08/25 03:16:08;;;;;;;27.95;25.50;;;18.00;99.90;;;;;;6001273;23;20090;-73
2022/08/25 03:18:38;;;;;;;27.17;24.88;;;18.00;99.90;;;;;;5990211;23;20326;-74
2022/08/25 03:21:06;;;;;;;27.38;25.20;;;17.90;99.90;;;;;;5997544;23;20052;-73
2022/08/25 03:23:33;;;;;;;26.88;24.98;;;17.80;99.90;;;;;;6032104;23;20579;-74
2022/08/25 03:28:46;;;;;;;27.35;25.15;;;17.60;99.90;;;;;;6021113;23;20099;-74
2022/08/25 03:31:13;;;;;;;27.48;25.55;;;17.60;99.90;;;;;;5982759;23;20128;-73
2022/08/25 03:33:39;;;;;;;27.67;25.58;;;17.50;99.90;;;;;;6016093;23;20029;-74
2022/08/25 03:36:07;;;;;;;26.60;24.80;;;17.30;99.90;;;;;;5965374;23;20041;-72
2022/08/25 03:38:37;;;;;;;28.73;25.95;;;17.30;99.90;;;;;;6011921;23;20041;-74
2022/08/25 03:41:15;;;;;;;27.88;25.67;;;17.30;99.90;;;;;;6012208;23;20061;-74
2022/08/25 03:43:42;;;;;;;26.98;24.95;;;17.30;99.90;;;;;;6005832;23;20069;-75
2022/08/25 03:46:29;;;;;;;26.95;25.02;;;17.10;99.90;;;;;;6011397;23;20042;-74
2022/08/25 03:48:56;;;;;;;27.63;25.05;;;17.10;99.90;;;;;;6009803;23;20113;-74
2022/08/25 03:51:27;;;;;;;26.75;24.65;;;17.10;99.90;;;;;;6023860;23;20506;-74
2022/08/25 03:53:55;;;;;;;27.63;25.00;;;17.00;99.90;;;;;;6042947;23;20110;-74
2022/08/25 03:56:21;;;;;;;27.75;25.50;;;17.00;99.90;;;;;;6016068;23;20066;-75
2022/08/25 03:58:50;;;;;;;27.27;25.05;;;16.90;99.90;;;;;;6041615;23;20029;-74
2022/08/25 04:01:17;;;;;;;27.13;25.10;;;16.80;99.90;;;;;;6041090;23;20343;-73
2022/08/25 04:03:44;;;;;;;27.60;25.38;;;16.70;99.90;;;;;;6043103;23;20115;-73
2022/08/25 04:06:12;;;;;;;27.73;25.52;;;16.70;99.90;;;;;;6042059;23;20041;-74
2022/08/25 04:08:39;;;;;;;28.15;25.80;;;16.60;99.90;;;;;;6007896;23;20037;-75
2022/08/25 04:11:11;;;;;;;28.40;26.27;;;16.50;99.90;;;;;;6039317;23;20037;-75
2022/08/25 04:13:40;;;;;;;28.25;26.02;;;16.50;99.90;;;;;;6017810;23;20136;-73
2022/08/25 04:16:12;;;;;;;28.45;26.15;;;16.50;99.90;;;;;;6041792;23;20032;-73
2022/08/25 04:18:41;;;;;;;29.77;27.02;;;16.50;99.90;;;;;;6017563;23;20095;-75
2022/08/25 04:21:09;;;;;;;29.20;26.98;;;16.40;99.90;;;;;;6015804;23;20048;-75
2022/08/25 04:23:41;;;;;;;27.58;25.38;;;16.50;99.90;;;;;;6015536;23;20123;-74
2022/08/25 04:26:23;;;;;;;28.65;26.42;;;16.40;99.90;;;;;;6050725;23;20063;-74
2022/08/25 04:28:51;;;;;;;29.25;27.15;;;16.30;99.90;;;;;;6035016;23;20451;-75
2022/08/25 04:31:20;;;;;;;28.60;26.45;;;16.20;99.90;;;;;;6014233;23;20490;-74
2022/08/25 04:33:47;;;;;;;29.05;26.67;;;16.10;99.90;;;;;;6018027;23;20116;-73
2022/08/25 04:36:16;;;;;;;28.42;26.35;;;16.10;99.90;;;;;;5985811;23;20087;-75
2022/08/25 04:38:44;;;;;;;29.17;26.85;;;16.10;99.90;;;;;;6013716;23;20446;-75
2022/08/25 04:41:12;;;;;;;30.55;27.65;;;16.10;99.90;;;;;;6001448;23;20047;-73
2022/08/25 04:43:41;;;;;;;28.80;26.58;;;16.10;99.90;;;;;;6011785;23;20411;-74
2022/08/25 04:46:11;;;;;;;29.23;27.00;;;16.00;99.90;;;;;;6039270;23;20028;-74
2022/08/25 04:48:39;;;;;;;29.40;27.05;;;16.10;99.90;;;;;;6016528;23;20111;-74
2022/08/25 04:51:09;;;;;;;28.95;26.63;;;16.20;99.90;;;;;;6041264;23;20474;-74
2022/08/25 04:53:37;;;;;;;28.73;26.80;;;16.20;99.90;;;;;;6040727;23;20040;-74
2022/08/25 04:56:06;;;;;;;29.23;26.73;;;16.10;99.90;;;;;;6015502;23;20512;-75
2022/08/25 04:58:33;;;;;;;28.30;26.08;;;16.10;99.90;;;;;;6039658;23;20040;-75
2022/08/25 05:01:05;;;;;;;29.92;27.77;;;16.20;99.90;;;;;;6042787;23;20040;-74
2022/08/25 05:03:32;;;;;;;29.55;27.40;;;16.10;99.90;;;;;;6015052;23;20064;-74
2022/08/25 05:05:59;;;;;;;27.90;25.42;;;16.10;99.90;;;;;;6042349;23;20043;-74
2022/08/25 05:08:26;;;;;;;28.52;26.23;;;16.10;99.90;;;;;;6013858;23;20435;-75
2022/08/25 05:10:55;;;;;;;28.27;25.73;;;16.20;99.90;;;;;;6043309;23;20037;-73
2022/08/25 05:13:23;;;;;;;27.67;25.58;;;16.30;99.90;;;;;;6014046;23;20045;-75
2022/08/25 05:15:55;;;;;;;27.27;24.80;;;16.20;99.90;;;;;;6016909;23;20172;-75
2022/08/25 05:18:26;;;;;;;25.15;23.40;;;16.30;99.90;;;;;;6038470;23;20396;-75
2022/08/25 05:20:53;;;;;;;24.92;22.77;;;16.80;99.90;;;;;;6017660;23;20471;-75
2022/08/25 05:23:24;;;;;;;26.48;24.05;;;17.30;99.90;;;;;;6013368;23;20048;-75
2022/08/25 05:25:51;;;;;;;25.58;23.48;;;17.70;99.90;;;;;;6048563;23;20033;-74
2022/08/25 05:28:19;;;;;;;26.30;24.15;;;18.00;99.90;;;;;;6038320;23;20414;-73
2022/08/25 05:30:48;;;;;;;25.27;23.40;;;18.30;99.90;;;;;;6033788;23;20048;-74
2022/08/25 05:33:15;;;;;;;24.77;23.08;;;18.40;99.90;;;;;;6037281;23;20145;-73
2022/08/25 05:35:42;;;;;;;24.27;22.67;;;18.50;99.90;;;;;;6039884;23;20033;-73
2022/08/25 05:38:10;;;;;;;26.30;24.60;;;18.60;99.90;;;;;;6015689;23;20098;-73
2022/08/25 05:40:41;;;;;;;25.60;23.63;;;18.60;99.90;;;;;;6042076;23;20102;-74
2022/08/25 05:43:09;;;;;;;24.98;23.20;;;18.70;99.90;;;;;;6041445;23;20048;-74
2022/08/25 05:45:35;;;;;;;25.23;23.17;;;18.80;99.90;;;;;;6039613;23;20806;-73
2022/08/25 05:48:02;;;;;;;24.80;23.10;;;18.90;99.90;;;;;;6042658;23;20119;-73
2022/08/25 05:50:29;;;;;;;25.77;23.77;;;18.90;99.90;;;;;;6013843;23;20041;-75
2022/08/25 05:52:56;;;;;;;24.60;22.80;;;19.00;99.90;;;;;;6043075;23;20036;-73
2022/08/25 05:55:23;;;;;;;24.75;22.92;;;19.10;99.90;;;;;;6039014;23;20488;-72
2022/08/25 05:57:49;;;;;;;26.10;24.13;;;19.20;99.90;;;;;;6042608;23;20036;-73
2022/08/25 06:00:17;;;;;;;25.50;23.70;;;19.20;99.90;;;;;;6038868;23;20489;-75
2022/08/25 06:02:45;;;;;;;25.02;23.40;;;19.30;99.90;;;;;;6044284;23;20033;-76
2022/08/25 06:05:17;;;;;;;25.48;23.75;;;19.50;99.90;;;;;;6041116;23;20033;-75
2022/08/25 06:07:50;;;;;;;25.45;23.75;;;19.40;99.90;;;;;;6036294;23;20029;-75
2022/08/25 06:10:18;;;;;;;26.48;24.40;;;19.60;99.90;;;;;;6039699;23;20045;-76
2022/08/25 06:12:46;;;;;;;25.27;23.58;;;19.60;99.90;;;;;;6018082;23;20040;-75
2022/08/25 06:15:16;;;;;;;25.98;24.08;;;19.70;99.90;;;;;;6014878;23;20040;-74
2022/08/25 06:17:43;;;;;;;26.15;24.17;;;19.70;99.90;;;;;;6015709;23;20040;-75
2022/08/25 06:20:13;;;;;;;25.85;23.95;;;19.80;99.90;;;;;;6040535;23;20033;-75
2022/08/25 06:22:40;;;;;;;25.98;24.38;;;19.90;99.90;;;;;;6017769;23;20116;-75
2022/08/25 06:25:09;;;;;;;27.60;25.48;;;20.00;99.90;;;;;;6049516;23;20032;-76
2022/08/25 06:27:37;;;;;;;27.33;25.02;;;20.10;99.90;;;;;;6017150;23;20147;-72
2022/08/25 06:30:07;;;;;;;27.17;25.10;;;20.20;99.90;;;;;;6042084;23;20510;-73
2022/08/25 06:32:35;;;;;;;27.25;25.02;;;20.30;99.90;;;;;;6016819;23;20051;-74
2022/08/25 06:35:09;;;;;;;28.55;26.05;;;20.40;99.90;;;;;;6019953;23;20057;-74
2022/08/25 06:37:36;;;;;;;27.88;25.42;;;20.40;99.90;;;;;;6016463;23;20041;-73
2022/08/25 06:40:05;;;;;;;27.55;25.13;;;20.50;99.90;;;;;;6041968;23;20037;-72
2022/08/25 06:42:32;;;;;;;28.58;26.38;;;20.60;99.90;;;;;;6043102;23;20040;-74
2022/08/25 06:45:00;;;;;;;27.80;25.48;;;20.80;99.90;;;;;;6018682;23;20033;-74
2022/08/25 06:47:27;;;;;;;28.10;25.73;;;21.00;99.90;;;;;;6038785;23;20036;-73
2022/08/25 06:49:53;;;;;;;27.33;24.95;;;21.20;99.90;;;;;;6045761;23;20045;-73
2022/08/25 06:52:20;;;;;;;30.20;27.23;;;21.40;99.90;;;;;;6041581;23;20036;-74
2022/08/25 06:54:55;;;;;;;27.48;25.25;;;21.60;99.90;;;;;;6045221;23;20395;-75
2022/08/25 06:57:22;;;;;;;28.27;26.10;;;21.90;99.90;;;;;;6041406;23;20032;-74
2022/08/25 06:59:48;;;;;;;30.02;27.60;;;22.00;99.90;;;;;;6018290;23;20507;-75
2022/08/25 07:02:19;;;;;;;29.90;27.08;;;22.00;99.90;;;;;;6038164;23;20036;-74
2022/08/25 07:04:48;;;;;;;29.63;27.13;;;22.00;99.90;;;;;;6043219;23;20032;-74
2022/08/25 07:07:15;;;;;;;29.13;26.77;;;22.10;99.90;;;;;;6041379;23;20040;-74
2022/08/25 07:09:41;;;;;;;29.88;27.42;;;22.20;99.90;;;;;;6043562;23;20518;-75
2022/08/25 07:12:08;;;;;;;28.30;26.33;;;22.20;99.90;;;;;;6006090;23;20033;-73
2022/08/25 07:14:35;;;;;;;30.77;28.17;;;22.30;99.90;;;;;;5984093;23;20488;-75
2022/08/25 07:17:03;;;;;;;29.17;26.98;;;22.50;99.90;;;;;;5994964;23;20129;-73
2022/08/25 07:19:38;;;;;;;30.20;27.73;;;22.60;99.90;;;;;;5989495;23;20037;-74
2022/08/25 07:22:06;;;;;;;31.17;28.80;;;22.70;99.90;;;;;;6026448;23;20649;-73
2022/08/25 07:24:35;;;;;;;29.98;27.88;;;23.00;99.90;;;;;;6040404;23;20789;-73
2022/08/25 07:27:02;;;;;;;31.05;28.67;;;23.30;99.90;;;;;;5988917;23;20037;-75
2022/08/25 07:29:30;;;;;;;31.30;29.20;;;23.60;99.90;;;;;;6010406;23;20045;-74
2022/08/25 07:32:00;;;;;;;34.08;31.35;;;23.90;99.90;;;;;;6032737;23;20451;-75
2022/08/25 07:37:20;;;;;;;32.30;29.73;;;23.70;99.90;;;;;;6041878;23;20509;-74
2022/08/25 07:40:08;;;;;;;31.75;29.20;;;23.70;99.90;;;;;;6044718;23;20087;-73
2022/08/25 07:42:36;;;;;;;32.28;30.10;;;23.70;99.90;;;;;;6042586;23;21413;-73
2022/08/25 07:45:05;;;;;;;32.83;30.27;;;24.00;99.90;;;;;;6027229;23;20099;-72
2022/08/25 07:47:33;;;;;;;31.67;29.38;;;24.00;99.90;;;;;;6009745;23;20112;-74
2022/08/25 07:50:00;;;;;;;32.35;29.80;;;24.00;99.90;;;;;;6009579;23;20037;-74
2022/08/25 07:52:27;;;;;;;33.50;30.95;;;24.20;99.90;;;;;;6032704;23;20033;-75
2022/08/25 07:54:54;;;;;;;34.15;31.77;;;24.20;99.90;;;;;;6026761;23;20091;-73
2022/08/25 07:57:22;;;;;;;33.25;31.15;;;24.60;99.90;;;;;;6039726;23;20096;-75
2022/08/25 07:59:49;;;;;;;35.47;32.80;;;24.50;99.90;;;;;;6065899;23;20104;-74
2022/08/25 08:02:16;;;;;;;34.92;32.25;;;25.00;99.90;;;;;;6050631;23;20295;-75
2022/08/25 08:04:48;;;;;;;37.05;34.13;;;24.70;99.90;;;;;;6010705;23;20083;-74
2022/08/25 08:07:22;;;;;;;36.50;33.88;;;24.80;99.90;;;;;;6036528;23;20313;-73
2022/08/25 08:09:50;;;;;;;35.00;32.42;;;25.00;99.90;;;;;;6030369;23;20040;-74
2022/08/25 08:12:37;;;;;;;36.20;33.38;;;25.40;99.90;;;;;;6032808;23;20045;-74
2022/08/25 08:15:05;;;;;;;36.22;33.25;;;25.80;99.90;;;;;;6030526;23;20422;-75
2022/08/25 08:17:37;;;;;;;35.40;32.80;;;26.00;99.90;;;;;;6039152;23;20047;-75
2022/08/25 08:20:09;;;;;;;37.22;34.38;;;26.40;99.90;;;;;;6042817;23;20466;-73
2022/08/25 08:22:41;;;;;;;37.33;34.50;;;26.60;99.90;;;;;;6041566;23;20209;-75
2022/08/25 08:25:10;;;;;;;38.05;34.95;;;26.70;99.90;;;;;;6049835;23;20032;-74
2022/08/25 08:27:45;;;;;;;38.03;34.95;;;26.70;99.90;;;;;;6006627;23;20033;-74
2022/08/25 08:30:12;;;;;;;38.08;35.10;;;26.20;99.90;;;;;;6013368;23;20112;-74
2022/08/25 08:32:39;;;;;;;39.95;36.33;;;26.00;99.90;;;;;;6065788;23;20037;-75
2022/08/25 08:35:26;;;;;;;41.35;38.30;;;25.70;99.90;;;;;;6038061;23;20016;-73
2022/08/25 08:37:53;;;;;;;39.45;36.58;;;26.00;99.90;;;;;;6042880;23;20243;-74
2022/08/25 08:40:20;;;;;;;38.78;35.97;;;26.50;99.90;;;;;;6041851;23;20293;-74
2022/08/25 08:43:01;;;;;;;40.35;36.95;;;26.50;99.90;;;;;;6043131;23;20040;-74
2022/08/25 08:45:37;;;;;;;40.38;36.95;;;26.00;99.90;;;;;;6018480;23;20024;-74
2022/08/25 08:48:39;;;;;;;41.70;38.35;;;26.00;99.90;;;;;;6041084;23;20108;-73
2022/08/25 08:51:15;;;;;;;40.92;37.78;;;25.80;99.90;;;;;;6000572;23;20032;-74
2022/08/25 08:53:56;;;;;;;40.53;37.28;;;25.60;99.90;;;;;;6036743;23;20091;-73
2022/08/25 08:56:37;;;;;;;38.50;35.08;;;25.70;99.90;;;;;;6016442;23;20117;-74
2022/08/25 08:59:25;;;;;;;39.40;36.22;;;25.60;99.90;;;;;;5798585;22;20624;-74
2022/08/25 09:02:01;;;;;;;37.88;35.38;;;25.70;99.90;;;;;;5032200;28;20048;-74
2022/08/25 09:04:32;;;;;;;37.80;34.85;;;25.70;99.90;;;;;;5014644;28;20534;-75
2022/08/25 09:07:03;;;;;;;37.88;35.00;;;25.90;99.90;;;;;;5036309;28;20067;-76
2022/08/25 09:09:33;;;;;;;38.10;35.30;;;26.10;99.90;;;;;;5008211;28;20076;-75
2022/08/25 09:12:02;;;;;;;37.67;34.72;;;25.80;99.90;;;;;;5030411;28;20083;-74
2022/08/25 09:14:37;;;;;;;38.55;35.42;;;25.70;99.90;;;;;;4998611;28;20695;-76
2022/08/25 09:17:34;;;;;;;39.17;36.20;;;25.90;99.90;;;;;;5016049;28;20052;-74
2022/08/25 09:20:35;;;;;;;38.90;35.58;;;26.00;99.90;;;;;;4992897;28;20107;-74
2022/08/25 09:23:18;;;;;;;37.30;34.50;;;26.30;99.90;;;;;;5033407;28;20086;-75
2022/08/25 09:26:02;;;;;;;37.15;34.42;;;26.30;99.90;;;;;;5037105;28;20037;-76
2022/08/25 09:28:41;;;;;;;37.03;34.25;;;26.10;99.90;;;;;;5015096;28;20103;-75
2022/08/25 09:31:15;;;;;;;37.78;35.08;;;26.40;99.90;;;;;;4998350;28;20146;-74
2022/08/25 09:33:41;;;;;;;36.58;33.60;;;26.80;99.90;;;;;;4998043;28;20071;-77
2022/08/25 09:36:08;;;;;;;36.30;33.47;;;26.90;99.90;;;;;;5033754;28;20045;-76
2022/08/25 09:38:35;;;;;;;36.83;34.10;;;26.90;99.90;;;;;;5035681;28;20120;-75
2022/08/25 09:41:04;;;;;;;34.45;31.35;;;27.30;99.90;;;;;;5033734;28;20119;-76
2022/08/25 09:43:40;;;;;;;36.63;34.03;;;27.30;99.90;;;;;;5012723;28;20731;-74
2022/08/25 09:46:07;;;;;;;36.85;33.97;;;27.40;99.90;;;;;;5008657;28;20131;-75
2022/08/25 09:48:43;;;;;;;37.08;34.20;;;27.10;99.90;;;;;;5035322;28;20045;-75
2022/08/25 09:51:29;;;;;;;34.60;32.05;;;27.40;99.90;;;;;;5015905;28;20446;-75
2022/08/25 09:54:11;;;;;;;35.35;32.47;;;27.50;99.90;;;;;;5031059;28;20138;-76
2022/08/25 09:56:53;;;;;;;36.22;33.38;;;27.20;99.90;;;;;;5016922;28;20049;-74
2022/08/25 09:59:29;;;;;;;34.30;31.67;;;27.50;99.90;;;;;;5036280;28;20069;-75
2022/08/25 10:02:24;;;;;;;37.05;34.25;;;27.60;99.90;;;;;;5040581;28;20063;-73
2022/08/25 10:04:52;;;;;;;35.85;33.30;;;27.70;99.90;;;;;;5035902;28;20094;-75
2022/08/25 10:07:28;;;;;;;35.22;32.58;;;27.60;99.90;;;;;;5038143;28;20048;-74
2022/08/25 10:10:06;;;;;;;34.50;31.52;;;27.00;99.90;;;;;;5022212;28;20045;-75
2022/08/25 10:12:41;;;;;;;35.88;33.17;;;26.50;99.90;;;;;;5036225;28;20048;-75
2022/08/25 10:15:20;;;;;;;34.83;32.53;;;26.50;99.90;;;;;;5039211;28;20041;-73
2022/08/25 10:18:28;;;;;;;35.25;32.45;;;26.90;99.90;;;;;;5019768;28;20530;-73
2022/08/25 10:21:17;;;;;;;36.28;33.53;;;27.20;99.90;;;;;;5038913;28;20041;-74
2022/08/25 10:23:50;;;;;;;35.42;32.83;;;27.30;99.90;;;;;;5016778;28;20395;-76
2022/08/25 10:26:57;;;;;;;32.83;30.58;;;27.20;99.90;;;;;;5038746;28;20049;-74
2022/08/25 10:29:26;;;;;;;33.60;31.05;;;27.20;99.90;;;;;;5017921;28;20130;-75
2022/08/25 10:32:02;;;;;;;36.20;33.33;;;27.20;99.90;;;;;;5035762;28;20533;-75
2022/08/25 10:34:41;;;;;;;34.17;31.48;;;26.80;99.90;;;;;;5011049;28;20090;-75
2022/08/25 10:37:41;;;;;;;35.42;32.65;;;27.10;99.90;;;;;;5032277;28;20431;-74
2022/08/25 10:40:35;;;;;;;34.88;32.20;;;27.20;99.90;;;;;;5032216;28;20285;-76
2022/08/25 10:43:32;;;;;;;35.50;32.92;;;27.30;99.90;;;;;;5034396;28;20148;-72
2022/08/25 10:46:48;;;;;;;37.47;34.42;;;27.70;99.90;;;;;;5016795;28;20041;-76
2022/08/25 10:49:15;;;;;;;35.17;32.40;;;27.60;99.90;;;;;;4998046;28;20146;-76
2022/08/25 10:51:54;;;;;;;35.28;32.40;;;27.50;99.90;;;;;;5035148;28;20535;-75
2022/08/25 10:54:39;;;;;;;35.72;33.20;;;28.10;99.90;;;;;;5036010;28;20083;-73
2022/08/25 10:57:24;;;;;;;35.75;32.90;;;28.40;99.90;;;;;;5031983;28;20092;-74
2022/08/25 11:00:09;;;;;;;36.25;33.45;;;28.50;99.90;;;;;;5035121;28;20453;-75
2022/08/25 11:03:05;;;;;;;33.40;30.58;;;28.00;99.90;;;;;;5016790;28;20041;-75
2022/08/25 11:05:40;;;;;;;36.42;33.10;;;27.60;99.90;;;;;;4964182;28;20104;-73
2022/08/25 11:08:15;;;;;;;36.95;34.15;;;27.80;99.90;;;;;;5020019;28;20060;-74
2022/08/25 11:10:45;;;;;;;36.55;33.75;;;27.70;99.90;;;;;;5014757;28;20093;-74
2022/08/25 11:13:24;;;;;;;35.33;32.92;;;27.70;99.90;;;;;;5037415;28;20507;-74
2022/08/25 11:16:01;;;;;;;35.25;32.22;;;27.60;99.90;;;;;;5034335;28;20037;-76
2022/08/25 11:18:58;;;;;;;35.38;32.83;;;27.60;99.90;;;;;;5037479;28;20068;-74
2022/08/25 11:21:45;;;;;;;37.75;34.47;;;27.60;99.90;;;;;;5016345;28;20132;-75
2022/08/25 11:24:38;;;;;;;35.92;33.10;;;27.70;99.90;;;;;;5036966;28;20122;-75
2022/08/25 11:27:12;;;;;;;37.75;34.78;;;28.10;99.90;;;;;;5006301;28;20053;-75
2022/08/25 11:29:42;;;;;;;35.65;33.13;;;28.20;99.90;;;;;;5018557;28;20442;-73
2022/08/25 11:32:09;;;;;;;35.38;32.63;;;28.50;99.90;;;;;;5016335;28;20041;-74
2022/08/25 11:34:36;;;;;;;34.97;32.38;;;28.10;99.90;;;;;;5017148;28;20068;-75
2022/08/25 11:37:27;;;;;;;36.38;33.38;;;28.10;99.90;;;;;;5035486;28;20045;-71
2022/08/25 11:40:00;;;;;;;34.63;32.10;;;28.00;99.90;;;;;;4996263;28;20057;-72
2022/08/25 11:42:36;;;;;;;34.95;32.35;;;27.70;99.90;;;;;;5016524;28;20049;-74
2022/08/25 11:45:06;;;;;;;34.95;32.28;;;28.00;99.90;;;;;;5017551;28;20060;-72
2022/08/25 11:47:40;;;;;;;37.42;34.65;;;28.20;99.90;;;;;;5035802;28;20075;-73
2022/08/25 11:50:31;;;;;;;35.40;33.00;;;27.90;99.90;;;;;;5035542;28;20133;-73
2022/08/25 11:53:25;;;;;;;35.53;32.55;;;27.50;99.90;;;;;;5038211;28;20053;-74
2022/08/25 11:55:57;;;;;;;33.88;31.55;;;27.70;99.90;;;;;;5027681;28;20048;-75
2022/08/25 11:58:27;;;;;;;35.10;32.22;;;27.70;99.90;;;;;;5035433;28;20036;-74
2022/08/25 12:01:01;;;;;;;36.65;33.80;;;27.80;99.90;;;;;;5038079;28;20461;-75
2022/08/25 12:03:31;;;;;;;36.75;33.78;;;27.80;99.90;;;;;;5035885;28;20477;-73
2022/08/25 12:06:20;;;;;;;35.83;32.95;;;28.60;99.90;;;;;;5048544;28;20084;-73
2022/08/25 12:09:12;;;;;;;32.70;30.40;;;29.10;99.90;;;;;;5047374;28;20037;-75
2022/08/25 12:11:45;;;;;;;35.30;32.47;;;29.40;99.90;;;;;;5022454;28;20070;-74
2022/08/25 12:14:15;;;;;;;32.65;30.30;;;28.50;99.90;;;;;;5017982;28;20069;-73
2022/08/25 12:16:54;;;;;;;32.88;30.58;;;28.30;99.90;;;;;;5017644;28;20533;-75
2022/08/25 12:19:33;;;;;;;35.67;33.17;;;28.10;99.90;;;;;;5001235;28;20053;-75
2022/08/25 12:22:00;;;;;;;37.08;34.08;;;28.20;99.90;;;;;;5029692;28;20540;-75
2022/08/25 12:25:02;;;;;;;32.55;30.15;;;28.30;99.90;;;;;;5035396;28;20049;-74
2022/08/25 12:27:51;;;;;;;35.05;32.35;;;28.30;99.90;;;;;;5032203;28;20045;-74
2022/08/25 12:30:25;;;;;;;34.60;31.98;;;28.40;99.90;;;;;;5035256;28;20573;-71
2022/08/25 12:33:22;;;;;;;33.88;31.58;;;28.50;99.90;;;;;;5030874;28;20135;-75
2022/08/25 12:35:56;;;;;;;36.88;33.80;;;28.20;99.90;;;;;;5029791;28;20535;-75
2022/08/25 12:38:42;;;;;;;34.80;32.10;;;28.20;99.90;;;;;;5032945;28;20561;-74
2022/08/25 12:41:17;;;;;;;33.13;31.02;;;28.60;99.90;;;;;;5018739;28;20071;-75
2022/08/25 12:43:46;;;;;;;34.13;31.85;;;28.60;99.90;;;;;;5017542;28;20118;-75
2022/08/25 12:46:24;;;;;;;35.15;32.38;;;28.50;99.90;;;;;;5017869;28;20503;-74
2022/08/25 12:49:01;;;;;;;33.90;31.20;;;28.20;99.90;;;;;;5014526;28;20553;-75
2022/08/25 12:51:34;;;;;;;33.70;31.40;;;28.20;99.90;;;;;;5009491;28;20615;-75
2022/08/25 12:54:32;;;;;;;34.30;31.95;;;28.40;99.90;;;;;;5037093;28;20531;-75
2022/08/25 12:57:02;;;;;;;34.83;32.03;;;28.10;99.90;;;;;;5033402;28;20044;-75
2022/08/25 12:59:42;;;;;;;33.88;31.38;;;28.00;99.90;;;;;;4999230;28;20099;-75
2022/08/25 13:02:45;;;;;;;33.38;31.10;;;28.30;99.90;;;;;;5034318;28;20429;-75